PWSweather.com
Personal Weather Stations
Station Observations
KMDSOLOM1
solomons, Solomons, MD 20688

solomonsSolomons, MD 20688

Lat: 38.32, Lon: -76.45

Elevation: 5

Station Type:

http://www.act-us.info/weather

High Low Average
Temperature 48.7°F9.3°C 34.2°F1.2°C 40.7°F4.8°C
Dew Point 34.5°F1.4°C 18.5°F-7.5°C 24.7°F-4.1°C
Winds 22.0 mph 35.4 kmh Calm Calm 8.0 mph S12.9 kmh S
Wind Gusts 34.0 mph54.7 kmh -- 13.0 mph20.9 kmh
Humidity 78% 34% 53%
Pressure 30.32 in1026.8 mb 30.08 in1018.6 mb -
Precipitation 0.00 in0.0 mm - -
Hour Temp Dew Point Humidity Winds Wind Gusts Pressure Precip Precip Rate Daily Precip Total
12:00 AM 40.5°F4.7°C 24.3°F-4.3°C 52% 15.0 mph SW24.1 kmh SW 28.0 mph45.1 kmh 30.05 in1017.6 mb 0.00 in0.0 mm 0.00 in0.0 mm 0.00 in0.0 mm
12:05 AM 40.2°F4.6°C 24.5°F-4.2°C 53% 12.0 mph SW19.3 kmh SW 33.0 mph53.1 kmh 30.05 in1017.6 mb 0.00 in0.0 mm 0.00 in0.0 mm 0.00 in0.0 mm
12:10 AM 40.1°F4.5°C 24.4°F-4.2°C 53% 14.0 mph SW22.5 kmh SW 14.0 mph22.5 kmh 30.06 in1017.9 mb 0.00 in0.0 mm 0.00 in0.0 mm 0.00 in0.0 mm
12:15 AM 39.8°F4.3°C 22.7°F-5.2°C 50% 24.0 mph SW38.6 kmh SW 31.0 mph49.9 kmh 30.06 in1017.9 mb 0.00 in0.0 mm 0.00 in0.0 mm 0.00 in0.0 mm
12:20 AM 39.5°F4.2°C 23.4°F-4.8°C 52% 26.0 mph W41.8 kmh W 31.0 mph49.9 kmh 30.06 in1017.9 mb 0.00 in0.0 mm 0.00 in0.0 mm 0.00 in0.0 mm
12:25 AM 39.0°F3.9°C 22.0°F-5.6°C 50% 20.0 mph SW32.2 kmh SW 20.0 mph32.2 kmh 30.07 in1018.3 mb 0.00 in0.0 mm 0.00 in0.0 mm 0.00 in0.0 mm
12:30 AM 38.8°F3.8°C 21.8°F-5.7°C 50% 15.0 mph SSW24.1 kmh SSW 26.0 mph41.8 kmh 30.07 in1018.3 mb 0.00 in0.0 mm 0.00 in0.0 mm 0.00 in0.0 mm
12:35 AM 38.5°F3.6°C 22.4°F-5.3°C 52% 9.0 mph SSW14.5 kmh SSW 26.0 mph41.8 kmh 30.08 in1018.6 mb 0.00 in0.0 mm 0.00 in0.0 mm 0.00 in0.0 mm
12:40 AM 38.4°F3.6°C 21.9°F-5.6°C 51% 19.0 mph SW30.6 kmh SW 24.0 mph38.6 kmh 30.08 in1018.6 mb 0.00 in0.0 mm 0.00 in0.0 mm 0.00 in0.0 mm
12:45 AM 38.4°F3.6°C 23.7°F-4.6°C 55% 18.0 mph SW29.0 kmh SW 24.0 mph38.6 kmh 30.08 in1018.6 mb 0.00 in0.0 mm 0.00 in0.0 mm 0.00 in0.0 mm
12:50 AM 38.0°F3.3°C 21.0°F-6.1°C 50% 17.0 mph SW27.4 kmh SW 35.0 mph56.3 kmh 30.08 in1018.6 mb 0.00 in0.0 mm 0.00 in0.0 mm 0.00 in0.0 mm
12:55 AM 37.5°F3.1°C 20.6°F-6.3°C 50% 21.0 mph WSW33.8 kmh WSW 28.0 mph45.1 kmh 30.08 in1018.6 mb 0.00 in0.0 mm 0.00 in0.0 mm 0.00 in0.0 mm
01:00 AM 37.1°F2.8°C 20.2°F-6.6°C 50% 20.0 mph SW32.2 kmh SW 34.0 mph54.7 kmh 30.08 in1018.6 mb 0.00 in0.0 mm 0.00 in0.0 mm 0.00 in0.0 mm
01:05 AM 36.6°F2.6°C 19.3°F-7.1°C 49% 19.0 mph SW30.6 kmh SW 34.0 mph54.7 kmh 30.09 in1019.0 mb 0.00 in0.0 mm 0.00 in0.0 mm 0.00 in0.0 mm
01:10 AM 36.3°F2.4°C 19.5°F-6.9°C 50% 22.0 mph WSW35.4 kmh WSW 29.0 mph46.7 kmh 30.09 in1019.0 mb 0.00 in0.0 mm 0.00 in0.0 mm 0.00 in0.0 mm
01:15 AM 36.3°F2.4°C 20.4°F-6.4°C 52% 15.0 mph SW24.1 kmh SW 29.0 mph46.7 kmh 30.09 in1019.0 mb 0.00 in0.0 mm 0.00 in0.0 mm 0.00 in0.0 mm
01:20 AM 36.1°F2.3°C 19.7°F-6.8°C 51% 13.0 mph SW20.9 kmh SW 29.0 mph46.7 kmh 30.10 in1019.3 mb 0.00 in0.0 mm 0.00 in0.0 mm 0.00 in0.0 mm
01:25 AM 36.0°F2.2°C 20.5°F-6.4°C 53% 19.0 mph SW30.6 kmh SW 19.0 mph30.6 kmh 30.10 in1019.3 mb 0.00 in0.0 mm 0.00 in0.0 mm 0.00 in0.0 mm
01:30 AM 35.7°F2.1°C 20.3°F-6.5°C 53% 9.0 mph SSW14.5 kmh SSW 23.0 mph37.0 kmh 30.10 in1019.3 mb 0.00 in0.0 mm 0.00 in0.0 mm 0.00 in0.0 mm
01:35 AM 35.7°F2.1°C 20.7°F-6.3°C 54% 16.0 mph SW25.7 kmh SW 30.0 mph48.3 kmh 30.10 in1019.3 mb 0.00 in0.0 mm 0.00 in0.0 mm 0.00 in0.0 mm
01:40 AM 35.5°F1.9°C 19.6°F-6.9°C 52% 18.0 mph WSW29.0 kmh WSW 20.0 mph32.2 kmh 30.10 in1019.3 mb 0.00 in0.0 mm 0.00 in0.0 mm 0.00 in0.0 mm
01:45 AM 35.4°F1.9°C 19.5°F-6.9°C 52% 17.0 mph SW27.4 kmh SW 32.0 mph51.5 kmh 30.10 in1019.3 mb 0.00 in0.0 mm 0.00 in0.0 mm 0.00 in0.0 mm
01:50 AM 35.3°F1.8°C 19.5°F-6.9°C 52% 11.0 mph SSW17.7 kmh SSW 33.0 mph53.1 kmh 30.10 in1019.3 mb 0.00 in0.0 mm 0.00 in0.0 mm 0.00 in0.0 mm
01:55 AM 35.2°F1.8°C 19.4°F-7.0°C 52% 17.0 mph SW27.4 kmh SW 27.0 mph43.5 kmh 30.11 in1019.6 mb 0.00 in0.0 mm 0.00 in0.0 mm 0.00 in0.0 mm
02:00 AM 35.2°F1.8°C 19.4°F-7.0°C 52% 11.0 mph SW17.7 kmh SW 27.0 mph43.5 kmh 30.11 in1019.6 mb 0.00 in0.0 mm 0.00 in0.0 mm 0.00 in0.0 mm
02:05 AM 35.2°F1.8°C 19.4°F-7.0°C 52% 13.0 mph SW20.9 kmh SW 27.0 mph43.5 kmh 30.11 in1019.6 mb 0.00 in0.0 mm 0.00 in0.0 mm 0.00 in0.0 mm
02:10 AM 35.1°F1.7°C 19.3°F-7.1°C 52% 12.0 mph SW19.3 kmh SW 20.0 mph32.2 kmh 30.11 in1019.6 mb 0.00 in0.0 mm 0.00 in0.0 mm 0.00 in0.0 mm
02:15 AM 35.1°F1.7°C 20.1°F-6.6°C 54% 16.0 mph SW25.7 kmh SW 20.0 mph32.2 kmh 30.12 in1020.0 mb 0.00 in0.0 mm 0.00 in0.0 mm 0.00 in0.0 mm
02:20 AM 35.0°F1.7°C 19.6°F-6.9°C 53% 21.0 mph SW33.8 kmh SW 26.0 mph41.8 kmh 30.12 in1020.0 mb 0.00 in0.0 mm 0.00 in0.0 mm 0.00 in0.0 mm
02:25 AM 35.0°F1.7°C 19.2°F-7.1°C 52% 19.0 mph SW30.6 kmh SW 20.0 mph32.2 kmh 30.11 in1019.6 mb 0.00 in0.0 mm 0.00 in0.0 mm 0.00 in0.0 mm
02:30 AM 35.0°F1.7°C 20.5°F-6.4°C 55% 12.0 mph SW19.3 kmh SW 24.0 mph38.6 kmh 30.11 in1019.6 mb 0.00 in0.0 mm 0.00 in0.0 mm 0.00 in0.0 mm
02:35 AM 35.0°F1.7°C 19.6°F-6.9°C 53% 8.0 mph WSW12.9 kmh WSW 30.0 mph48.3 kmh 30.11 in1019.6 mb 0.00 in0.0 mm 0.00 in0.0 mm 0.00 in0.0 mm
02:40 AM 35.0°F1.7°C 20.1°F-6.6°C 54% 17.0 mph WSW27.4 kmh WSW 28.0 mph45.1 kmh 30.11 in1019.6 mb 0.00 in0.0 mm 0.00 in0.0 mm 0.00 in0.0 mm
02:45 AM 34.8°F1.6°C 19.0°F-7.2°C 52% 21.0 mph SW33.8 kmh SW 31.0 mph49.9 kmh 30.12 in1020.0 mb 0.00 in0.0 mm 0.00 in0.0 mm 0.00 in0.0 mm
02:50 AM 34.8°F1.6°C 20.3°F-6.5°C 55% 10.0 mph SSW16.1 kmh SSW 31.0 mph49.9 kmh 30.12 in1020.0 mb 0.00 in0.0 mm 0.00 in0.0 mm 0.00 in0.0 mm
02:55 AM 34.8°F1.6°C 19.4°F-7.0°C 53% 20.0 mph WSW32.2 kmh WSW 26.0 mph41.8 kmh 30.11 in1019.6 mb 0.00 in0.0 mm 0.00 in0.0 mm 0.00 in0.0 mm
03:00 AM 34.8°F1.6°C 19.4°F-7.0°C 53% 12.0 mph SW19.3 kmh SW 26.0 mph41.8 kmh 30.12 in1020.0 mb 0.00 in0.0 mm 0.00 in0.0 mm 0.00 in0.0 mm
03:05 AM 34.9°F1.6°C 20.0°F-6.7°C 54% 15.0 mph WSW24.1 kmh WSW 26.0 mph41.8 kmh 30.11 in1019.6 mb 0.00 in0.0 mm 0.00 in0.0 mm 0.00 in0.0 mm
03:10 AM 34.8°F1.6°C 20.7°F-6.3°C 56% 22.0 mph SW35.4 kmh SW 22.0 mph35.4 kmh 30.11 in1019.6 mb 0.00 in0.0 mm 0.00 in0.0 mm 0.00 in0.0 mm
03:15 AM 34.8°F1.6°C 19.4°F-7.0°C 53% 6.0 mph SW9.7 kmh SW 29.0 mph46.7 kmh 30.12 in1020.0 mb 0.00 in0.0 mm 0.00 in0.0 mm 0.00 in0.0 mm
03:20 AM 34.8°F1.6°C 19.9°F-6.7°C 54% 7.0 mph SW11.3 kmh SW 29.0 mph46.7 kmh 30.12 in1020.0 mb 0.00 in0.0 mm 0.00 in0.0 mm 0.00 in0.0 mm
03:25 AM 34.8°F1.6°C 19.9°F-6.7°C 54% 13.0 mph SW20.9 kmh SW 17.0 mph27.4 kmh 30.13 in1020.3 mb 0.00 in0.0 mm 0.00 in0.0 mm 0.00 in0.0 mm
03:30 AM 34.8°F1.6°C 20.3°F-6.5°C 55% 13.0 mph SW20.9 kmh SW 26.0 mph41.8 kmh 30.12 in1020.0 mb 0.00 in0.0 mm 0.00 in0.0 mm 0.00 in0.0 mm
03:35 AM 34.7°F1.5°C 19.3°F-7.1°C 53% 16.0 mph SW25.7 kmh SW 26.0 mph41.8 kmh 30.13 in1020.3 mb 0.00 in0.0 mm 0.00 in0.0 mm 0.00 in0.0 mm
03:40 AM 34.8°F1.6°C 19.9°F-6.7°C 54% 15.0 mph WSW24.1 kmh WSW 19.0 mph30.6 kmh 30.12 in1020.0 mb 0.00 in0.0 mm 0.00 in0.0 mm 0.00 in0.0 mm
03:45 AM 34.8°F1.6°C 19.9°F-6.7°C 54% 13.0 mph SW20.9 kmh SW 21.0 mph33.8 kmh 30.13 in1020.3 mb 0.00 in0.0 mm 0.00 in0.0 mm 0.00 in0.0 mm
03:50 AM 34.7°F1.5°C 18.9°F-7.3°C 52% 20.0 mph SW32.2 kmh SW 34.0 mph54.7 kmh 30.13 in1020.3 mb 0.00 in0.0 mm 0.00 in0.0 mm 0.00 in0.0 mm
03:55 AM 34.8°F1.6°C 20.3°F-6.5°C 55% 18.0 mph SW29.0 kmh SW 18.0 mph29.0 kmh 30.13 in1020.3 mb 0.00 in0.0 mm 0.00 in0.0 mm 0.00 in0.0 mm
04:00 AM 34.8°F1.6°C 19.4°F-7.0°C 53% 13.0 mph WSW20.9 kmh WSW 23.0 mph37.0 kmh 30.14 in1020.7 mb 0.00 in0.0 mm 0.00 in0.0 mm 0.00 in0.0 mm
04:05 AM 34.8°F1.6°C 19.9°F-6.7°C 54% 13.0 mph SW20.9 kmh SW 23.0 mph37.0 kmh 30.13 in1020.3 mb 0.00 in0.0 mm 0.00 in0.0 mm 0.00 in0.0 mm
04:10 AM 34.8°F1.6°C 19.9°F-6.7°C 54% 12.0 mph SW19.3 kmh SW 16.0 mph25.7 kmh 30.13 in1020.3 mb 0.00 in0.0 mm 0.00 in0.0 mm 0.00 in0.0 mm
04:15 AM 34.8°F1.6°C 20.3°F-6.5°C 55% 12.0 mph SW19.3 kmh SW 21.0 mph33.8 kmh 30.13 in1020.3 mb 0.00 in0.0 mm 0.00 in0.0 mm 0.00 in0.0 mm
04:20 AM 34.8°F1.6°C 19.0°F-7.2°C 52% 9.0 mph WSW14.5 kmh WSW 23.0 mph37.0 kmh 30.13 in1020.3 mb 0.00 in0.0 mm 0.00 in0.0 mm 0.00 in0.0 mm
04:25 AM 34.8°F1.6°C 19.4°F-7.0°C 53% 12.0 mph SW19.3 kmh SW 21.0 mph33.8 kmh 30.13 in1020.3 mb 0.00 in0.0 mm 0.00 in0.0 mm 0.00 in0.0 mm
04:30 AM 34.7°F1.5°C 19.3°F-7.1°C 53% 14.0 mph SSW22.5 kmh SSW 22.0 mph35.4 kmh 30.14 in1020.7 mb 0.00 in0.0 mm 0.00 in0.0 mm 0.00 in0.0 mm
04:35 AM 34.7°F1.5°C 18.9°F-7.3°C 52% 11.0 mph SW17.7 kmh SW 28.0 mph45.1 kmh 30.14 in1020.7 mb 0.00 in0.0 mm 0.00 in0.0 mm 0.00 in0.0 mm
04:40 AM 34.7°F1.5°C 19.8°F-6.8°C 54% 19.0 mph SW30.6 kmh SW 20.0 mph32.2 kmh 30.14 in1020.7 mb 0.00 in0.0 mm 0.00 in0.0 mm 0.00 in0.0 mm
04:45 AM 34.7°F1.5°C 19.8°F-6.8°C 54% 10.0 mph WSW16.1 kmh WSW 20.0 mph32.2 kmh 30.15 in1021.0 mb 0.00 in0.0 mm 0.00 in0.0 mm 0.00 in0.0 mm
04:50 AM 34.6°F1.4°C 19.2°F-7.1°C 53% 11.0 mph SW17.7 kmh SW 20.0 mph32.2 kmh 30.15 in1021.0 mb 0.00 in0.0 mm 0.00 in0.0 mm 0.00 in0.0 mm
04:55 AM 34.6°F1.4°C 19.2°F-7.1°C 53% 14.0 mph SSW22.5 kmh SSW 15.0 mph24.1 kmh 30.15 in1021.0 mb 0.00 in0.0 mm 0.00 in0.0 mm 0.00 in0.0 mm
05:00 AM 34.4°F1.3°C 18.6°F-7.4°C 52% 13.0 mph SW20.9 kmh SW 22.0 mph35.4 kmh 30.16 in1021.3 mb 0.00 in0.0 mm 0.00 in0.0 mm 0.00 in0.0 mm
05:05 AM 34.5°F1.4°C 19.6°F-6.9°C 54% 15.0 mph SW24.1 kmh SW 22.0 mph35.4 kmh 30.16 in1021.3 mb 0.00 in0.0 mm 0.00 in0.0 mm 0.00 in0.0 mm
05:10 AM 34.5°F1.4°C 20.0°F-6.7°C 55% 4.0 mph SW6.4 kmh SW 11.0 mph17.7 kmh 30.16 in1021.3 mb 0.00 in0.0 mm 0.00 in0.0 mm 0.00 in0.0 mm
05:15 AM 34.4°F1.3°C 19.5°F-6.9°C 54% 5.0 mph WSW8.0 kmh WSW 16.0 mph25.7 kmh 30.16 in1021.3 mb 0.00 in0.0 mm 0.00 in0.0 mm 0.00 in0.0 mm
05:20 AM 34.5°F1.4°C 19.6°F-6.9°C 54% 6.0 mph SW9.7 kmh SW 23.0 mph37.0 kmh 30.16 in1021.3 mb 0.00 in0.0 mm 0.00 in0.0 mm 0.00 in0.0 mm
05:25 AM 34.5°F1.4°C 19.6°F-6.9°C 54% 6.0 mph SW9.7 kmh SW 11.0 mph17.7 kmh 30.17 in1021.7 mb 0.00 in0.0 mm 0.00 in0.0 mm 0.00 in0.0 mm
05:30 AM 34.5°F1.4°C 20.0°F-6.7°C 55% 10.0 mph SW16.1 kmh SW 14.0 mph22.5 kmh 30.17 in1021.7 mb 0.00 in0.0 mm 0.00 in0.0 mm 0.00 in0.0 mm
05:35 AM 34.5°F1.4°C 19.6°F-6.9°C 54% 5.0 mph WSW8.0 kmh WSW 23.0 mph37.0 kmh 30.17 in1021.7 mb 0.00 in0.0 mm 0.00 in0.0 mm 0.00 in0.0 mm
05:40 AM 34.4°F1.3°C 19.1°F-7.2°C 53% 8.0 mph SW12.9 kmh SW 17.0 mph27.4 kmh 30.17 in1021.7 mb 0.00 in0.0 mm 0.00 in0.0 mm 0.00 in0.0 mm
05:45 AM 34.4°F1.3°C 20.3°F-6.5°C 56% 10.0 mph WSW16.1 kmh WSW 17.0 mph27.4 kmh 30.18 in1022.0 mb 0.00 in0.0 mm 0.00 in0.0 mm 0.00 in0.0 mm
05:50 AM 34.4°F1.3°C 19.5°F-6.9°C 54% 10.0 mph SW16.1 kmh SW 19.0 mph30.6 kmh 30.18 in1022.0 mb 0.00 in0.0 mm 0.00 in0.0 mm 0.00 in0.0 mm
05:55 AM 34.4°F1.3°C 19.1°F-7.2°C 53% 11.0 mph WSW17.7 kmh WSW 18.0 mph29.0 kmh 30.18 in1022.0 mb 0.00 in0.0 mm 0.00 in0.0 mm 0.00 in0.0 mm
06:00 AM 34.3°F1.3°C 18.5°F-7.5°C 52% 5.0 mph WSW8.0 kmh WSW 20.0 mph32.2 kmh 30.18 in1022.0 mb 0.00 in0.0 mm 0.00 in0.0 mm 0.00 in0.0 mm
06:05 AM 34.3°F1.3°C 19.4°F-7.0°C 54% 9.0 mph WSW14.5 kmh WSW 20.0 mph32.2 kmh 30.18 in1022.0 mb 0.00 in0.0 mm 0.00 in0.0 mm 0.00 in0.0 mm
06:10 AM 34.2°F1.2°C 19.7°F-6.8°C 55% 14.0 mph WSW22.5 kmh WSW 14.0 mph22.5 kmh 30.18 in1022.0 mb 0.00 in0.0 mm 0.00 in0.0 mm 0.00 in0.0 mm
06:15 AM 34.2°F1.2°C 19.7°F-6.8°C 55% 14.0 mph WSW22.5 kmh WSW 17.0 mph27.4 kmh 30.19 in1022.4 mb 0.00 in0.0 mm 0.00 in0.0 mm 0.00 in0.0 mm
06:20 AM 34.3°F1.3°C 19.4°F-7.0°C 54% 9.0 mph WSW14.5 kmh WSW 17.0 mph27.4 kmh 30.19 in1022.4 mb 0.00 in0.0 mm 0.00 in0.0 mm 0.00 in0.0 mm
06:25 AM 34.3°F1.3°C 20.3°F-6.5°C 56% 7.0 mph SW11.3 kmh SW 7.0 mph11.3 kmh 30.19 in1022.4 mb 0.00 in0.0 mm 0.00 in0.0 mm 0.00 in0.0 mm
06:30 AM 34.3°F1.3°C 20.3°F-6.5°C 56% 11.0 mph SW17.7 kmh SW 15.0 mph24.1 kmh 30.19 in1022.4 mb 0.00 in0.0 mm 0.00 in0.0 mm 0.00 in0.0 mm
06:35 AM 34.4°F1.3°C 19.9°F-6.7°C 55% 11.0 mph SW17.7 kmh SW 22.0 mph35.4 kmh 30.19 in1022.4 mb 0.00 in0.0 mm 0.00 in0.0 mm 0.00 in0.0 mm
06:40 AM 34.3°F1.3°C 21.1°F-6.1°C 58% 8.0 mph SW12.9 kmh SW 15.0 mph24.1 kmh 30.19 in1022.4 mb 0.00 in0.0 mm 0.00 in0.0 mm 0.00 in0.0 mm
06:45 AM 34.4°F1.3°C 19.9°F-6.7°C 55% 9.0 mph SSW14.5 kmh SSW 20.0 mph32.2 kmh 30.19 in1022.4 mb 0.00 in0.0 mm 0.00 in0.0 mm 0.00 in0.0 mm
06:50 AM 34.4°F1.3°C 21.2°F-6.0°C 58% 7.0 mph SW11.3 kmh SW 20.0 mph32.2 kmh 30.19 in1022.4 mb 0.00 in0.0 mm 0.00 in0.0 mm 0.00 in0.0 mm
06:55 AM 34.4°F1.3°C 20.3°F-6.5°C 56% 18.0 mph SW29.0 kmh SW 19.0 mph30.6 kmh 30.19 in1022.4 mb 0.00 in0.0 mm 0.00 in0.0 mm 0.00 in0.0 mm
07:00 AM 34.4°F1.3°C 20.3°F-6.5°C 56% 11.0 mph SSW17.7 kmh SSW 19.0 mph30.6 kmh 30.19 in1022.4 mb 0.00 in0.0 mm 0.00 in0.0 mm 0.00 in0.0 mm
07:05 AM 34.3°F1.3°C 19.8°F-6.8°C 55% 17.0 mph SW27.4 kmh SW 20.0 mph32.2 kmh 30.20 in1022.7 mb 0.00 in0.0 mm 0.00 in0.0 mm 0.00 in0.0 mm
07:10 AM 34.4°F1.3°C 19.9°F-6.7°C 55% 9.0 mph SSW14.5 kmh SSW 12.0 mph19.3 kmh 30.20 in1022.7 mb 0.00 in0.0 mm 0.00 in0.0 mm 0.00 in0.0 mm
07:15 AM 34.5°F1.4°C 21.3°F-5.9°C 58% 8.0 mph SW12.9 kmh SW 15.0 mph24.1 kmh 30.21 in1023.0 mb 0.00 in0.0 mm 0.00 in0.0 mm 0.00 in0.0 mm
07:20 AM 34.6°F1.4°C 21.0°F-6.1°C 57% 12.0 mph SW19.3 kmh SW 19.0 mph30.6 kmh 30.21 in1023.0 mb 0.00 in0.0 mm 0.00 in0.0 mm 0.00 in0.0 mm
07:25 AM 34.6°F1.4°C 21.0°F-6.1°C 57% 5.0 mph SW8.0 kmh SW 11.0 mph17.7 kmh 30.21 in1023.0 mb 0.00 in0.0 mm 0.00 in0.0 mm 0.00 in0.0 mm
07:30 AM 34.8°F1.6°C 22.0°F-5.6°C 59% 7.0 mph WSW11.3 kmh WSW 18.0 mph29.0 kmh 30.21 in1023.0 mb 0.00 in0.0 mm 0.00 in0.0 mm 0.00 in0.0 mm
07:35 AM 34.9°F1.6°C 22.0°F-5.6°C 59% 12.0 mph SW19.3 kmh SW 19.0 mph30.6 kmh 30.21 in1023.0 mb 0.00 in0.0 mm 0.00 in0.0 mm 0.00 in0.0 mm
07:40 AM 35.1°F1.7°C 22.2°F-5.4°C 59% 6.0 mph SW9.7 kmh SW 12.0 mph19.3 kmh 30.22 in1023.4 mb 0.00 in0.0 mm 0.00 in0.0 mm 0.00 in0.0 mm
07:45 AM 35.1°F1.7°C 21.0°F-6.1°C 56% 15.0 mph SW24.1 kmh SW 20.0 mph32.2 kmh 30.22 in1023.4 mb 0.00 in0.0 mm 0.00 in0.0 mm 0.00 in0.0 mm
07:50 AM 35.1°F1.7°C 21.8°F-5.7°C 58% 11.0 mph SW17.7 kmh SW 20.0 mph32.2 kmh 30.23 in1023.7 mb 0.00 in0.0 mm 0.00 in0.0 mm 0.00 in0.0 mm
07:55 AM 35.2°F1.8°C 21.9°F-5.6°C 58% 10.0 mph WSW16.1 kmh WSW 14.0 mph22.5 kmh 30.23 in1023.7 mb 0.00 in0.0 mm 0.00 in0.0 mm 0.00 in0.0 mm
08:00 AM 35.3°F1.8°C 22.4°F-5.3°C 59% 5.0 mph SW8.0 kmh SW 16.0 mph25.7 kmh 30.23 in1023.7 mb 0.00 in0.0 mm 0.00 in0.0 mm 0.00 in0.0 mm
08:05 AM 35.5°F1.9°C 21.4°F-5.9°C 56% 14.0 mph SW22.5 kmh SW 18.0 mph29.0 kmh 30.23 in1023.7 mb 0.00 in0.0 mm 0.00 in0.0 mm 0.00 in0.0 mm
08:10 AM 35.6°F2.0°C 21.9°F-5.6°C 57% 9.0 mph SW14.5 kmh SW 19.0 mph30.6 kmh 30.23 in1023.7 mb 0.00 in0.0 mm 0.00 in0.0 mm 0.00 in0.0 mm
08:15 AM 35.5°F1.9°C 21.8°F-5.7°C 57% 9.0 mph SW14.5 kmh SW 19.0 mph30.6 kmh 30.24 in1024.0 mb 0.00 in0.0 mm 0.00 in0.0 mm 0.00 in0.0 mm
08:20 AM 35.7°F2.1°C 22.0°F-5.6°C 57% 13.0 mph WSW20.9 kmh WSW 19.0 mph30.6 kmh 30.23 in1023.7 mb 0.00 in0.0 mm 0.00 in0.0 mm 0.00 in0.0 mm
08:25 AM 36.0°F2.2°C 22.7°F-5.2°C 58% 8.0 mph SW12.9 kmh SW 10.0 mph16.1 kmh 30.24 in1024.0 mb 0.00 in0.0 mm 0.00 in0.0 mm 0.00 in0.0 mm
08:30 AM 36.0°F2.2°C 22.3°F-5.4°C 57% 9.0 mph SW14.5 kmh SW 18.0 mph29.0 kmh 30.24 in1024.0 mb 0.00 in0.0 mm 0.00 in0.0 mm 0.00 in0.0 mm
08:35 AM 36.1°F2.3°C 21.1°F-6.1°C 54% 16.0 mph SW25.7 kmh SW 21.0 mph33.8 kmh 30.24 in1024.0 mb 0.00 in0.0 mm 0.00 in0.0 mm 0.00 in0.0 mm
08:40 AM 36.0°F2.2°C 21.8°F-5.7°C 56% 10.0 mph WSW16.1 kmh WSW 14.0 mph22.5 kmh 30.24 in1024.0 mb 0.00 in0.0 mm 0.00 in0.0 mm 0.00 in0.0 mm
08:45 AM 36.3°F2.4°C 21.7°F-5.7°C 55% 16.0 mph SW25.7 kmh SW 19.0 mph30.6 kmh 30.24 in1024.0 mb 0.00 in0.0 mm 0.00 in0.0 mm 0.00 in0.0 mm
08:50 AM 36.3°F2.4°C 21.3°F-5.9°C 54% 12.0 mph SW19.3 kmh SW 20.0 mph32.2 kmh 30.25 in1024.4 mb 0.00 in0.0 mm 0.00 in0.0 mm 0.00 in0.0 mm
08:55 AM 36.5°F2.5°C 22.3°F-5.4°C 56% 7.0 mph SW11.3 kmh SW 12.0 mph19.3 kmh 30.25 in1024.4 mb 0.00 in0.0 mm 0.00 in0.0 mm 0.00 in0.0 mm
09:00 AM 36.7°F2.6°C 20.8°F-6.2°C 52% 18.0 mph WSW29.0 kmh WSW 24.0 mph38.6 kmh 30.25 in1024.4 mb 0.00 in0.0 mm 0.00 in0.0 mm 0.00 in0.0 mm
09:05 AM 36.6°F2.6°C 20.2°F-6.6°C 51% 18.0 mph SW29.0 kmh SW 24.0 mph38.6 kmh 30.26 in1024.7 mb 0.00 in0.0 mm 0.00 in0.0 mm 0.00 in0.0 mm
09:10 AM 36.7°F2.6°C 21.2°F-6.0°C 53% 12.0 mph SW19.3 kmh SW 17.0 mph27.4 kmh 30.25 in1024.4 mb 0.00 in0.0 mm 0.00 in0.0 mm 0.00 in0.0 mm
09:15 AM 37.0°F2.8°C 21.9°F-5.6°C 54% 7.0 mph WSW11.3 kmh WSW 27.0 mph43.5 kmh 30.26 in1024.7 mb 0.00 in0.0 mm 0.00 in0.0 mm 0.00 in0.0 mm
09:20 AM 37.4°F3.0°C 21.4°F-5.9°C 52% 15.0 mph WSW24.1 kmh WSW 27.0 mph43.5 kmh 30.26 in1024.7 mb 0.00 in0.0 mm 0.00 in0.0 mm 0.00 in0.0 mm
09:25 AM 37.9°F3.3°C 22.3°F-5.4°C 53% 12.0 mph SW19.3 kmh SW 12.0 mph19.3 kmh 30.26 in1024.7 mb 0.00 in0.0 mm 0.00 in0.0 mm 0.00 in0.0 mm
09:30 AM 37.7°F3.2°C 21.7°F-5.7°C 52% 16.0 mph SW25.7 kmh SW 20.0 mph32.2 kmh 30.26 in1024.7 mb 0.00 in0.0 mm 0.00 in0.0 mm 0.00 in0.0 mm
09:35 AM 38.0°F3.3°C 22.0°F-5.6°C 52% 11.0 mph SW17.7 kmh SW 20.0 mph32.2 kmh 30.26 in1024.7 mb 0.00 in0.0 mm 0.00 in0.0 mm 0.00 in0.0 mm
09:40 AM 37.6°F3.1°C 20.7°F-6.3°C 50% 16.0 mph SW25.7 kmh SW 18.0 mph29.0 kmh 30.26 in1024.7 mb 0.00 in0.0 mm 0.00 in0.0 mm 0.00 in0.0 mm
09:45 AM 37.6°F3.1°C 20.2°F-6.6°C 49% 10.0 mph WSW16.1 kmh WSW 21.0 mph33.8 kmh 30.26 in1024.7 mb 0.00 in0.0 mm 0.00 in0.0 mm 0.00 in0.0 mm
09:50 AM 38.2°F3.4°C 21.7°F-5.7°C 51% 9.0 mph WSW14.5 kmh WSW 21.0 mph33.8 kmh 30.26 in1024.7 mb 0.00 in0.0 mm 0.00 in0.0 mm 0.00 in0.0 mm
09:55 AM 38.9°F3.8°C 23.2°F-4.9°C 53% 14.0 mph SW22.5 kmh SW 14.0 mph22.5 kmh 30.26 in1024.7 mb 0.00 in0.0 mm 0.00 in0.0 mm 0.00 in0.0 mm
10:00 AM 39.0°F3.9°C 22.0°F-5.6°C 50% 10.0 mph SW16.1 kmh SW 16.0 mph25.7 kmh 30.26 in1024.7 mb 0.00 in0.0 mm 0.00 in0.0 mm 0.00 in0.0 mm
10:05 AM 38.9°F3.8°C 21.9°F-5.6°C 50% 7.0 mph SW11.3 kmh SW 16.0 mph25.7 kmh 30.26 in1024.7 mb 0.00 in0.0 mm 0.00 in0.0 mm 0.00 in0.0 mm
10:10 AM 39.4°F4.1°C 23.3°F-4.8°C 52% 9.0 mph SSW14.5 kmh SSW 10.0 mph16.1 kmh 30.27 in1025.1 mb 0.00 in0.0 mm 0.00 in0.0 mm 0.00 in0.0 mm
10:15 AM 39.3°F4.1°C 22.2°F-5.4°C 50% 13.0 mph SSW20.9 kmh SSW 18.0 mph29.0 kmh 30.27 in1025.1 mb 0.00 in0.0 mm 0.00 in0.0 mm 0.00 in0.0 mm
10:20 AM 39.5°F4.2°C 22.9°F-5.1°C 51% 7.0 mph SW11.3 kmh SW 18.0 mph29.0 kmh 30.27 in1025.1 mb 0.00 in0.0 mm 0.00 in0.0 mm 0.00 in0.0 mm
10:25 AM 39.6°F4.2°C 23.0°F-5.0°C 51% 5.0 mph SW8.0 kmh SW 8.0 mph12.9 kmh 30.27 in1025.1 mb 0.00 in0.0 mm 0.00 in0.0 mm 0.00 in0.0 mm
10:30 AM 39.6°F4.2°C 23.4°F-4.8°C 52% 12.0 mph SW19.3 kmh SW 19.0 mph30.6 kmh 30.27 in1025.1 mb 0.00 in0.0 mm 0.00 in0.0 mm 0.00 in0.0 mm
10:35 AM 39.7°F4.3°C 22.6°F-5.2°C 50% 10.0 mph SW16.1 kmh SW 19.0 mph30.6 kmh 30.27 in1025.1 mb 0.00 in0.0 mm 0.00 in0.0 mm 0.00 in0.0 mm
10:40 AM 40.1°F4.5°C 23.4°F-4.8°C 51% 11.0 mph SW17.7 kmh SW 11.0 mph17.7 kmh 30.27 in1025.1 mb 0.00 in0.0 mm 0.00 in0.0 mm 0.00 in0.0 mm
10:45 AM 40.1°F4.5°C 22.5°F-5.3°C 49% 8.0 mph SW12.9 kmh SW 17.0 mph27.4 kmh 30.27 in1025.1 mb 0.00 in0.0 mm 0.00 in0.0 mm 0.00 in0.0 mm
10:50 AM 40.6°F4.8°C 23.9°F-4.5°C 51% 11.0 mph SSW17.7 kmh SSW 17.0 mph27.4 kmh 30.27 in1025.1 mb 0.00 in0.0 mm 0.00 in0.0 mm 0.00 in0.0 mm
10:55 AM 40.5°F4.7°C 23.8°F-4.6°C 51% 7.0 mph SSW11.3 kmh SSW 12.0 mph19.3 kmh 30.27 in1025.1 mb 0.00 in0.0 mm 0.00 in0.0 mm 0.00 in0.0 mm
11:00 AM 40.8°F4.9°C 24.1°F-4.4°C 51% 12.0 mph SW19.3 kmh SW 14.0 mph22.5 kmh 30.27 in1025.1 mb 0.00 in0.0 mm 0.00 in0.0 mm 0.00 in0.0 mm
11:05 AM 40.9°F4.9°C 22.7°F-5.2°C 48% 12.0 mph SW19.3 kmh SW 16.0 mph25.7 kmh 30.27 in1025.1 mb 0.00 in0.0 mm 0.00 in0.0 mm 0.00 in0.0 mm
11:10 AM 41.0°F5.0°C 24.3°F-4.3°C 51% 6.0 mph SW9.7 kmh SW 10.0 mph16.1 kmh 30.28 in1025.4 mb 0.00 in0.0 mm 0.00 in0.0 mm 0.00 in0.0 mm
11:15 AM 41.1°F5.1°C 23.4°F-4.8°C 49% 10.0 mph SSW16.1 kmh SSW 15.0 mph24.1 kmh 30.27 in1025.1 mb 0.00 in0.0 mm 0.00 in0.0 mm 0.00 in0.0 mm
11:20 AM 41.1°F5.1°C 22.9°F-5.1°C 48% 8.0 mph SSW12.9 kmh SSW 16.0 mph25.7 kmh 30.28 in1025.4 mb 0.00 in0.0 mm 0.00 in0.0 mm 0.00 in0.0 mm
11:25 AM 41.3°F5.2°C 23.6°F-4.7°C 49% 11.0 mph SW17.7 kmh SW 14.0 mph22.5 kmh 30.27 in1025.1 mb 0.00 in0.0 mm 0.00 in0.0 mm 0.00 in0.0 mm
11:30 AM 41.0°F5.0°C 22.3°F-5.4°C 47% 9.0 mph SSW14.5 kmh SSW 18.0 mph29.0 kmh 30.27 in1025.1 mb 0.00 in0.0 mm 0.00 in0.0 mm 0.00 in0.0 mm
11:35 AM 41.3°F5.2°C 22.6°F-5.2°C 47% 5.0 mph SSW8.0 kmh SSW 18.0 mph29.0 kmh 30.28 in1025.4 mb 0.00 in0.0 mm 0.00 in0.0 mm 0.00 in0.0 mm
11:40 AM 42.2°F5.7°C 25.4°F-3.7°C 51% 11.0 mph S17.7 kmh S 17.0 mph27.4 kmh 30.27 in1025.1 mb 0.00 in0.0 mm 0.00 in0.0 mm 0.00 in0.0 mm
11:45 AM 41.9°F5.5°C 23.7°F-4.6°C 48% 11.0 mph SW17.7 kmh SW 17.0 mph27.4 kmh 30.27 in1025.1 mb 0.00 in0.0 mm 0.00 in0.0 mm 0.00 in0.0 mm
11:50 AM 41.8°F5.4°C 24.1°F-4.4°C 49% 6.0 mph SW9.7 kmh SW 17.0 mph27.4 kmh 30.27 in1025.1 mb 0.00 in0.0 mm 0.00 in0.0 mm 0.00 in0.0 mm
11:55 AM 42.7°F5.9°C 24.4°F-4.2°C 48% 9.0 mph SW14.5 kmh SW 9.0 mph14.5 kmh 30.27 in1025.1 mb 0.00 in0.0 mm 0.00 in0.0 mm 0.00 in0.0 mm
12:00 PM 42.2°F5.7°C 24.4°F-4.2°C 49% 8.0 mph SSW12.9 kmh SSW 18.0 mph29.0 kmh 30.27 in1025.1 mb 0.00 in0.0 mm 0.00 in0.0 mm 0.00 in0.0 mm
12:05 PM 42.1°F5.6°C 24.3°F-4.3°C 49% 6.0 mph SW9.7 kmh SW 18.0 mph29.0 kmh 30.27 in1025.1 mb 0.00 in0.0 mm 0.00 in0.0 mm 0.00 in0.0 mm
12:10 PM 42.4°F5.8°C 24.1°F-4.4°C 48% 9.0 mph WSW14.5 kmh WSW 13.0 mph20.9 kmh 30.27 in1025.1 mb 0.00 in0.0 mm 0.00 in0.0 mm 0.00 in0.0 mm
12:15 PM 42.6°F5.9°C 24.8°F-4.0°C 49% 6.0 mph SW9.7 kmh SW 15.0 mph24.1 kmh 30.27 in1025.1 mb 0.00 in0.0 mm 0.00 in0.0 mm 0.00 in0.0 mm
12:20 PM 42.8°F6.0°C 24.5°F-4.2°C 48% 5.0 mph S8.0 kmh S 15.0 mph24.1 kmh 30.27 in1025.1 mb 0.00 in0.0 mm 0.00 in0.0 mm 0.00 in0.0 mm
12:25 PM 43.0°F6.1°C 24.2°F-4.3°C 47% 5.0 mph SSW8.0 kmh SSW 6.0 mph9.7 kmh 30.27 in1025.1 mb 0.00 in0.0 mm 0.00 in0.0 mm 0.00 in0.0 mm
12:30 PM 43.7°F6.5°C 24.3°F-4.3°C 46% 5.0 mph SSW8.0 kmh SSW 10.0 mph16.1 kmh 30.26 in1024.7 mb 0.00 in0.0 mm 0.00 in0.0 mm 0.00 in0.0 mm
12:35 PM 43.1°F6.2°C 24.8°F-4.0°C 48% 8.0 mph S12.9 kmh S 11.0 mph17.7 kmh 30.26 in1024.7 mb 0.00 in0.0 mm 0.00 in0.0 mm 0.00 in0.0 mm
12:40 PM 43.4°F6.3°C 24.5°F-4.2°C 47% 7.0 mph SW11.3 kmh SW 11.0 mph17.7 kmh 30.26 in1024.7 mb 0.00 in0.0 mm 0.00 in0.0 mm 0.00 in0.0 mm
12:45 PM 43.0°F6.1°C 23.1°F-4.9°C 45% 9.0 mph S14.5 kmh S 15.0 mph24.1 kmh 30.26 in1024.7 mb 0.00 in0.0 mm 0.00 in0.0 mm 0.00 in0.0 mm
12:50 PM 43.8°F6.6°C 26.4°F-3.1°C 50% 9.0 mph SSW14.5 kmh SSW 15.0 mph24.1 kmh 30.26 in1024.7 mb 0.00 in0.0 mm 0.00 in0.0 mm 0.00 in0.0 mm
12:55 PM 44.5°F6.9°C 24.5°F-4.2°C 45% 9.0 mph S14.5 kmh S 12.0 mph19.3 kmh 30.26 in1024.7 mb 0.00 in0.0 mm 0.00 in0.0 mm 0.00 in0.0 mm
01:00 PM 43.8°F6.6°C 23.3°F-4.8°C 44% 7.0 mph S11.3 kmh S 12.0 mph19.3 kmh 30.26 in1024.7 mb 0.00 in0.0 mm 0.00 in0.0 mm 0.00 in0.0 mm
01:05 PM 43.6°F6.4°C 24.2°F-4.3°C 46% 6.0 mph SSW9.7 kmh SSW 13.0 mph20.9 kmh 30.26 in1024.7 mb 0.00 in0.0 mm 0.00 in0.0 mm 0.00 in0.0 mm
01:10 PM 44.1°F6.7°C 23.1°F-4.9°C 43% 6.0 mph S9.7 kmh S 11.0 mph17.7 kmh 30.26 in1024.7 mb 0.00 in0.0 mm 0.00 in0.0 mm 0.00 in0.0 mm
01:15 PM 44.0°F6.7°C 23.5°F-4.7°C 44% 4.0 mph S6.4 kmh S 11.0 mph17.7 kmh 30.26 in1024.7 mb 0.00 in0.0 mm 0.00 in0.0 mm 0.00 in0.0 mm
01:20 PM 44.5°F6.9°C 24.0°F-4.4°C 44% 4.0 mph SSW6.4 kmh SSW 14.0 mph22.5 kmh 30.26 in1024.7 mb 0.00 in0.0 mm 0.00 in0.0 mm 0.00 in0.0 mm
01:25 PM 44.6°F7.0°C 24.1°F-4.4°C 44% 8.0 mph SW12.9 kmh SW 8.0 mph12.9 kmh 30.26 in1024.7 mb 0.00 in0.0 mm 0.00 in0.0 mm 0.00 in0.0 mm
01:30 PM 45.0°F7.2°C 23.9°F-4.5°C 43% 5.0 mph SSW8.0 kmh SSW 11.0 mph17.7 kmh 30.26 in1024.7 mb 0.00 in0.0 mm 0.00 in0.0 mm 0.00 in0.0 mm
01:35 PM 45.4°F7.4°C 21.3°F-5.9°C 38% 2.0 mph SW3.2 kmh SW 12.0 mph19.3 kmh 30.26 in1024.7 mb 0.00 in0.0 mm 0.00 in0.0 mm 0.00 in0.0 mm
01:40 PM 45.8°F7.7°C 23.5°F-4.7°C 41% 9.0 mph WSW14.5 kmh WSW 9.0 mph14.5 kmh 30.26 in1024.7 mb 0.00 in0.0 mm 0.00 in0.0 mm 0.00 in0.0 mm
01:45 PM 46.0°F7.8°C 25.9°F-3.4°C 45% 8.0 mph SW12.9 kmh SW 13.0 mph20.9 kmh 30.26 in1024.7 mb 0.00 in0.0 mm 0.00 in0.0 mm 0.00 in0.0 mm
01:50 PM 45.4°F7.4°C 23.7°F-4.6°C 42% 9.0 mph SW14.5 kmh SW 13.0 mph20.9 kmh 30.26 in1024.7 mb 0.00 in0.0 mm 0.00 in0.0 mm 0.00 in0.0 mm
01:55 PM 45.9°F7.7°C 24.7°F-4.1°C 43% 5.0 mph SW8.0 kmh SW 6.0 mph9.7 kmh 30.26 in1024.7 mb 0.00 in0.0 mm 0.00 in0.0 mm 0.00 in0.0 mm
02:00 PM 44.9°F7.2°C 22.6°F-5.2°C 41% 3.0 mph SW4.8 kmh SW 8.0 mph12.9 kmh 30.26 in1024.7 mb 0.00 in0.0 mm 0.00 in0.0 mm 0.00 in0.0 mm
02:05 PM 46.3°F7.9°C 24.5°F-4.2°C 42% 4.0 mph SW6.4 kmh SW 9.0 mph14.5 kmh 30.26 in1024.7 mb 0.00 in0.0 mm 0.00 in0.0 mm 0.00 in0.0 mm
02:10 PM 46.4°F8.0°C 24.6°F-4.1°C 42% 5.0 mph SW8.0 kmh SW 6.0 mph9.7 kmh 30.25 in1024.4 mb 0.00 in0.0 mm 0.00 in0.0 mm 0.00 in0.0 mm
02:15 PM 46.9°F8.3°C 26.1°F-3.3°C 44% 5.0 mph WSW8.0 kmh WSW 10.0 mph16.1 kmh 30.26 in1024.7 mb 0.00 in0.0 mm 0.00 in0.0 mm 0.00 in0.0 mm
02:20 PM 45.7°F7.6°C 22.8°F-5.1°C 40% 5.0 mph WSW8.0 kmh WSW 12.0 mph19.3 kmh 30.25 in1024.4 mb 0.00 in0.0 mm 0.00 in0.0 mm 0.00 in0.0 mm
02:25 PM 46.5°F8.1°C 24.1°F-4.4°C 41% 5.0 mph SW8.0 kmh SW 6.0 mph9.7 kmh 30.25 in1024.4 mb 0.00 in0.0 mm 0.00 in0.0 mm 0.00 in0.0 mm
02:30 PM 46.7°F8.2°C 22.5°F-5.3°C 38% 3.0 mph SSW4.8 kmh SSW 9.0 mph14.5 kmh 30.25 in1024.4 mb 0.00 in0.0 mm 0.00 in0.0 mm 0.00 in0.0 mm
02:35 PM 46.9°F8.3°C 25.0°F-3.9°C 42% 7.0 mph WSW11.3 kmh WSW 11.0 mph17.7 kmh 30.25 in1024.4 mb 0.00 in0.0 mm 0.00 in0.0 mm 0.00 in0.0 mm
02:40 PM 47.3°F8.5°C 25.4°F-3.7°C 42% 6.0 mph SW9.7 kmh SW 6.0 mph9.7 kmh 30.25 in1024.4 mb 0.00 in0.0 mm 0.00 in0.0 mm 0.00 in0.0 mm
02:45 PM 46.5°F8.1°C 23.5°F-4.7°C 40% 3.0 mph WSW4.8 kmh WSW 12.0 mph19.3 kmh 30.25 in1024.4 mb 0.00 in0.0 mm 0.00 in0.0 mm 0.00 in0.0 mm
02:50 PM 47.1°F8.4°C 23.4°F-4.8°C 39% 3.0 mph SW4.8 kmh SW 16.0 mph25.7 kmh 30.25 in1024.4 mb 0.00 in0.0 mm 0.00 in0.0 mm 0.00 in0.0 mm
02:55 PM 47.6°F8.7°C 23.3°F-4.8°C 38% 5.0 mph SW8.0 kmh SW 5.0 mph8.0 kmh 30.25 in1024.4 mb 0.00 in0.0 mm 0.00 in0.0 mm 0.00 in0.0 mm
03:00 PM 47.0°F8.3°C 22.1°F-5.5°C 37% 2.0 mph WSW3.2 kmh WSW 12.0 mph19.3 kmh 30.25 in1024.4 mb 0.00 in0.0 mm 0.00 in0.0 mm 0.00 in0.0 mm
03:05 PM 47.6°F8.7°C 25.1°F-3.8°C 41% 4.0 mph SW6.4 kmh SW 12.0 mph19.3 kmh 30.24 in1024.0 mb 0.00 in0.0 mm 0.00 in0.0 mm 0.00 in0.0 mm
03:10 PM 47.4°F8.6°C 24.3°F-4.3°C 40% 2.0 mph SW3.2 kmh SW 3.0 mph4.8 kmh 30.24 in1024.0 mb 0.00 in0.0 mm 0.00 in0.0 mm 0.00 in0.0 mm
03:15 PM 47.3°F8.5°C 24.2°F-4.3°C 40% 5.0 mph SW8.0 kmh SW 14.0 mph22.5 kmh 30.25 in1024.4 mb 0.00 in0.0 mm 0.00 in0.0 mm 0.00 in0.0 mm
03:20 PM 47.0°F8.3°C 22.7°F-5.2°C 38% 1.0 mph SW1.6 kmh SW 14.0 mph22.5 kmh 30.24 in1024.0 mb 0.00 in0.0 mm 0.00 in0.0 mm 0.00 in0.0 mm
03:25 PM 47.2°F8.4°C 24.1°F-4.4°C 40% 4.0 mph SW6.4 kmh SW 6.0 mph9.7 kmh 30.24 in1024.0 mb 0.00 in0.0 mm 0.00 in0.0 mm 0.00 in0.0 mm
03:30 PM 47.6°F8.7°C 22.6°F-5.2°C 37% 7.0 mph SW11.3 kmh SW 11.0 mph17.7 kmh 30.24 in1024.0 mb 0.00 in0.0 mm 0.00 in0.0 mm 0.00 in0.0 mm
03:35 PM 47.9°F8.8°C 23.5°F-4.7°C 38% 7.0 mph WSW11.3 kmh WSW 11.0 mph17.7 kmh 30.25 in1024.4 mb 0.00 in0.0 mm 0.00 in0.0 mm 0.00 in0.0 mm
03:40 PM 47.6°F8.7°C 23.3°F-4.8°C 38% 6.0 mph W9.7 kmh W 10.0 mph16.1 kmh 30.24 in1024.0 mb 0.00 in0.0 mm 0.00 in0.0 mm 0.00 in0.0 mm
03:45 PM 47.6°F8.7°C 22.0°F-5.6°C 36% 3.0 mph WSW4.8 kmh WSW 11.0 mph17.7 kmh 30.24 in1024.0 mb 0.00 in0.0 mm 0.00 in0.0 mm 0.00 in0.0 mm
03:50 PM 48.5°F9.2°C 24.7°F-4.1°C 39% 4.0 mph WSW6.4 kmh WSW 11.0 mph17.7 kmh 30.24 in1024.0 mb 0.00 in0.0 mm 0.00 in0.0 mm 0.00 in0.0 mm
03:55 PM 48.6°F9.2°C 22.2°F-5.4°C 35% 5.0 mph WSW8.0 kmh WSW 11.0 mph17.7 kmh 30.24 in1024.0 mb 0.00 in0.0 mm 0.00 in0.0 mm 0.00 in0.0 mm
04:00 PM 48.1°F8.9°C 24.3°F-4.3°C 39% 10.0 mph WSW16.1 kmh WSW 12.0 mph19.3 kmh 30.24 in1024.0 mb 0.00 in0.0 mm 0.00 in0.0 mm 0.00 in0.0 mm
04:05 PM 47.9°F8.8°C 24.2°F-4.3°C 39% 8.0 mph WSW12.9 kmh WSW 12.0 mph19.3 kmh 30.24 in1024.0 mb 0.00 in0.0 mm 0.00 in0.0 mm 0.00 in0.0 mm
04:10 PM 48.2°F9.0°C 23.8°F-4.6°C 38% 5.0 mph WSW8.0 kmh WSW 5.0 mph8.0 kmh 30.24 in1024.0 mb 0.00 in0.0 mm 0.00 in0.0 mm 0.00 in0.0 mm
04:15 PM 48.7°F9.3°C 23.6°F-4.7°C 37% 9.0 mph WSW14.5 kmh WSW 15.0 mph24.1 kmh 30.24 in1024.0 mb 0.00 in0.0 mm 0.00 in0.0 mm 0.00 in0.0 mm
04:20 PM 48.6°F9.2°C 24.8°F-4.0°C 39% 8.0 mph SW12.9 kmh SW 15.0 mph24.1 kmh 30.24 in1024.0 mb 0.00 in0.0 mm 0.00 in0.0 mm 0.00 in0.0 mm
04:25 PM 48.1°F8.9°C 21.1°F-6.1°C 34% 4.0 mph SW6.4 kmh SW 8.0 mph12.9 kmh 30.24 in1024.0 mb 0.00 in0.0 mm 0.00 in0.0 mm 0.00 in0.0 mm
04:30 PM 48.4°F9.1°C 24.0°F-4.4°C 38% 10.0 mph WSW16.1 kmh WSW 13.0 mph20.9 kmh 30.24 in1024.0 mb 0.00 in0.0 mm 0.00 in0.0 mm 0.00 in0.0 mm
04:35 PM 48.2°F9.0°C 22.5°F-5.3°C 36% 7.0 mph SW11.3 kmh SW 14.0 mph22.5 kmh 30.24 in1024.0 mb 0.00 in0.0 mm 0.00 in0.0 mm 0.00 in0.0 mm
04:40 PM 48.0°F8.9°C 22.3°F-5.4°C 36% 2.0 mph WSW3.2 kmh WSW 7.0 mph11.3 kmh 30.24 in1024.0 mb 0.00 in0.0 mm 0.00 in0.0 mm 0.00 in0.0 mm
04:45 PM 48.3°F9.1°C 23.9°F-4.5°C 38% 5.0 mph WSW8.0 kmh WSW 13.0 mph20.9 kmh 30.24 in1024.0 mb 0.00 in0.0 mm 0.00 in0.0 mm 0.00 in0.0 mm
04:50 PM 48.5°F9.2°C 22.1°F-5.5°C 35% 5.0 mph WSW8.0 kmh WSW 13.0 mph20.9 kmh 30.24 in1024.0 mb 0.00 in0.0 mm 0.00 in0.0 mm 0.00 in0.0 mm
04:55 PM 48.3°F9.1°C 23.3°F-4.8°C 37% 7.0 mph SW11.3 kmh SW 10.0 mph16.1 kmh 30.24 in1024.0 mb 0.00 in0.0 mm 0.00 in0.0 mm 0.00 in0.0 mm
05:00 PM 47.6°F8.7°C 24.5°F-4.2°C 40% 2.0 mph WNW3.2 kmh WNW 11.0 mph17.7 kmh 30.24 in1024.0 mb 0.00 in0.0 mm 0.00 in0.0 mm 0.00 in0.0 mm
05:05 PM 47.3°F8.5°C 25.4°F-3.7°C 42% 1.0 mph WNW1.6 kmh WNW 11.0 mph17.7 kmh 30.24 in1024.0 mb 0.00 in0.0 mm 0.00 in0.0 mm 0.00 in0.0 mm
05:10 PM 47.6°F8.7°C 24.5°F-4.2°C 40% 3.0 mph WNW4.8 kmh WNW 3.0 mph4.8 kmh 30.24 in1024.0 mb 0.00 in0.0 mm 0.00 in0.0 mm 0.00 in0.0 mm
05:15 PM 47.5°F8.6°C 23.2°F-4.9°C 38% Calm Calm 3.0 mph4.8 kmh 30.24 in1024.0 mb 0.00 in0.0 mm 0.00 in0.0 mm 0.00 in0.0 mm
05:20 PM 46.9°F8.3°C 25.6°F-3.6°C 43% 9.0 mph N14.5 kmh N 9.0 mph14.5 kmh 30.25 in1024.4 mb 0.00 in0.0 mm 0.00 in0.0 mm 0.00 in0.0 mm
05:25 PM 46.3°F7.9°C 27.7°F-2.4°C 48% 10.0 mph N16.1 kmh N 10.0 mph16.1 kmh 30.25 in1024.4 mb 0.00 in0.0 mm 0.00 in0.0 mm 0.00 in0.0 mm
05:30 PM 45.8°F7.7°C 30.1°F-1.1°C 54% 13.0 mph NE20.9 kmh NE 13.0 mph20.9 kmh 30.25 in1024.4 mb 0.00 in0.0 mm 0.00 in0.0 mm 0.00 in0.0 mm
05:35 PM 45.4°F7.4°C 28.8°F-1.8°C 52% 12.0 mph NNE19.3 kmh NNE 13.0 mph20.9 kmh 30.25 in1024.4 mb 0.00 in0.0 mm 0.00 in0.0 mm 0.00 in0.0 mm
05:40 PM 45.2°F7.3°C 28.2°F-2.1°C 51% 11.0 mph NNE17.7 kmh NNE 13.0 mph20.9 kmh 30.25 in1024.4 mb 0.00 in0.0 mm 0.00 in0.0 mm 0.00 in0.0 mm
05:45 PM 45.3°F7.4°C 29.2°F-1.6°C 53% 11.0 mph NNE17.7 kmh NNE 13.0 mph20.9 kmh 30.25 in1024.4 mb 0.00 in0.0 mm 0.00 in0.0 mm 0.00 in0.0 mm
05:50 PM 45.1°F7.3°C 27.1°F-2.7°C 49% 11.0 mph N17.7 kmh N 13.0 mph20.9 kmh 30.25 in1024.4 mb 0.00 in0.0 mm 0.00 in0.0 mm 0.00 in0.0 mm
05:55 PM 45.2°F7.3°C 29.1°F-1.6°C 53% 9.0 mph N14.5 kmh N 10.0 mph16.1 kmh 30.25 in1024.4 mb 0.00 in0.0 mm 0.00 in0.0 mm 0.00 in0.0 mm
06:00 PM 45.1°F7.3°C 26.6°F-3.0°C 48% 9.0 mph NNE14.5 kmh NNE 11.0 mph17.7 kmh 30.25 in1024.4 mb 0.00 in0.0 mm 0.00 in0.0 mm 0.00 in0.0 mm
06:05 PM 45.2°F7.3°C 27.2°F-2.7°C 49% 9.0 mph NNE14.5 kmh NNE 11.0 mph17.7 kmh 30.25 in1024.4 mb 0.00 in0.0 mm 0.00 in0.0 mm 0.00 in0.0 mm
06:10 PM 45.1°F7.3°C 26.6°F-3.0°C 48% 8.0 mph NNE12.9 kmh NNE 9.0 mph14.5 kmh 30.25 in1024.4 mb 0.00 in0.0 mm 0.00 in0.0 mm 0.00 in0.0 mm
06:15 PM 45.1°F7.3°C 28.1°F-2.2°C 51% 8.0 mph N12.9 kmh N 9.0 mph14.5 kmh 30.26 in1024.7 mb 0.00 in0.0 mm 0.00 in0.0 mm 0.00 in0.0 mm
06:20 PM 45.2°F7.3°C 28.6°F-1.9°C 52% 8.0 mph N12.9 kmh N 10.0 mph16.1 kmh 30.26 in1024.7 mb 0.00 in0.0 mm 0.00 in0.0 mm 0.00 in0.0 mm
06:25 PM 45.2°F7.3°C 27.2°F-2.7°C 49% 9.0 mph N14.5 kmh N 10.0 mph16.1 kmh 30.26 in1024.7 mb 0.00 in0.0 mm 0.00 in0.0 mm 0.00 in0.0 mm
06:30 PM 45.2°F7.3°C 28.6°F-1.9°C 52% 9.0 mph NNE14.5 kmh NNE 10.0 mph16.1 kmh 30.26 in1024.7 mb 0.00 in0.0 mm 0.00 in0.0 mm 0.00 in0.0 mm
06:35 PM 45.1°F7.3°C 27.6°F-2.4°C 50% 5.0 mph NNE8.0 kmh NNE 10.0 mph16.1 kmh 30.26 in1024.7 mb 0.00 in0.0 mm 0.00 in0.0 mm 0.00 in0.0 mm
06:40 PM 45.0°F7.2°C 27.5°F-2.5°C 50% 6.0 mph NE9.7 kmh NE 9.0 mph14.5 kmh 30.26 in1024.7 mb 0.00 in0.0 mm 0.00 in0.0 mm 0.00 in0.0 mm
06:45 PM 44.9°F7.2°C 27.4°F-2.6°C 50% 6.0 mph NNE9.7 kmh NNE 9.0 mph14.5 kmh 30.26 in1024.7 mb 0.00 in0.0 mm 0.00 in0.0 mm 0.00 in0.0 mm
06:50 PM 44.9°F7.2°C 28.4°F-2.0°C 52% 5.0 mph NNE8.0 kmh NNE 9.0 mph14.5 kmh 30.26 in1024.7 mb 0.00 in0.0 mm 0.00 in0.0 mm 0.00 in0.0 mm
06:55 PM 44.8°F7.1°C 28.3°F-2.1°C 52% 6.0 mph NE9.7 kmh NE 8.0 mph12.9 kmh 30.26 in1024.7 mb 0.00 in0.0 mm 0.00 in0.0 mm 0.00 in0.0 mm
07:00 PM 44.7°F7.1°C 27.2°F-2.7°C 50% 5.0 mph NNE8.0 kmh NNE 9.0 mph14.5 kmh 30.26 in1024.7 mb 0.00 in0.0 mm 0.00 in0.0 mm 0.00 in0.0 mm
07:05 PM 44.6°F7.0°C 27.1°F-2.7°C 50% 4.0 mph NNE6.4 kmh NNE 9.0 mph14.5 kmh 30.26 in1024.7 mb 0.00 in0.0 mm 0.00 in0.0 mm 0.00 in0.0 mm
07:10 PM 44.6°F7.0°C 25.6°F-3.6°C 47% 3.0 mph NNE4.8 kmh NNE 4.0 mph6.4 kmh 30.27 in1025.1 mb 0.00 in0.0 mm 0.00 in0.0 mm 0.00 in0.0 mm
07:15 PM 44.6°F7.0°C 28.1°F-2.2°C 52% 5.0 mph NNE8.0 kmh NNE 6.0 mph9.7 kmh 30.27 in1025.1 mb 0.00 in0.0 mm 0.00 in0.0 mm 0.00 in0.0 mm
07:20 PM 44.7°F7.1°C 27.2°F-2.7°C 50% 5.0 mph NNE8.0 kmh NNE 6.0 mph9.7 kmh 30.27 in1025.1 mb 0.00 in0.0 mm 0.00 in0.0 mm 0.00 in0.0 mm
07:25 PM 44.7°F7.1°C 28.6°F-1.9°C 53% 6.0 mph NNE9.7 kmh NNE 8.0 mph12.9 kmh 30.27 in1025.1 mb 0.00 in0.0 mm 0.00 in0.0 mm 0.00 in0.0 mm
07:30 PM 44.7°F7.1°C 29.1°F-1.6°C 54% 8.0 mph NE12.9 kmh NE 9.0 mph14.5 kmh 30.27 in1025.1 mb 0.00 in0.0 mm 0.00 in0.0 mm 0.00 in0.0 mm
07:35 PM 44.6°F7.0°C 29.0°F-1.7°C 54% 9.0 mph NE14.5 kmh NE 10.0 mph16.1 kmh 30.27 in1025.1 mb 0.00 in0.0 mm 0.00 in0.0 mm 0.00 in0.0 mm
07:40 PM 44.5°F6.9°C 29.8°F-1.2°C 56% 4.0 mph NE6.4 kmh NE 6.0 mph9.7 kmh 30.27 in1025.1 mb 0.00 in0.0 mm 0.00 in0.0 mm 0.00 in0.0 mm
07:45 PM 44.5°F6.9°C 29.4°F-1.4°C 55% 6.0 mph NE9.7 kmh NE 6.0 mph9.7 kmh 30.27 in1025.1 mb 0.00 in0.0 mm 0.00 in0.0 mm 0.00 in0.0 mm
07:50 PM 44.4°F6.9°C 29.7°F-1.3°C 56% 5.0 mph NE8.0 kmh NE 8.0 mph12.9 kmh 30.27 in1025.1 mb 0.00 in0.0 mm 0.00 in0.0 mm 0.00 in0.0 mm
07:55 PM 44.3°F6.8°C 29.6°F-1.3°C 56% 8.0 mph NE12.9 kmh NE 8.0 mph12.9 kmh 30.27 in1025.1 mb 0.00 in0.0 mm 0.00 in0.0 mm 0.00 in0.0 mm
08:00 PM 44.3°F6.8°C 30.0°F-1.1°C 57% 6.0 mph NE9.7 kmh NE 9.0 mph14.5 kmh 30.28 in1025.4 mb 0.00 in0.0 mm 0.00 in0.0 mm 0.00 in0.0 mm
08:05 PM 44.1°F6.7°C 29.0°F-1.7°C 55% 5.0 mph NE8.0 kmh NE 9.0 mph14.5 kmh 30.28 in1025.4 mb 0.00 in0.0 mm 0.00 in0.0 mm 0.00 in0.0 mm
08:10 PM 44.0°F6.7°C 30.2°F-1.0°C 58% 7.0 mph NE11.3 kmh NE 7.0 mph11.3 kmh 30.28 in1025.4 mb 0.00 in0.0 mm 0.00 in0.0 mm 0.00 in0.0 mm
08:15 PM 43.9°F6.6°C 30.1°F-1.1°C 58% 4.0 mph NE6.4 kmh NE 9.0 mph14.5 kmh 30.28 in1025.4 mb 0.00 in0.0 mm 0.00 in0.0 mm 0.00 in0.0 mm
08:20 PM 43.8°F6.6°C 30.0°F-1.1°C 58% 4.0 mph NE6.4 kmh NE 9.0 mph14.5 kmh 30.28 in1025.4 mb 0.00 in0.0 mm 0.00 in0.0 mm 0.00 in0.0 mm
08:25 PM 43.8°F6.6°C 31.2°F-0.4°C 61% 4.0 mph NE6.4 kmh NE 9.0 mph14.5 kmh 30.29 in1025.7 mb 0.00 in0.0 mm 0.00 in0.0 mm 0.00 in0.0 mm
08:30 PM 43.7°F6.5°C 31.2°F-0.4°C 61% 5.0 mph NE8.0 kmh NE 9.0 mph14.5 kmh 30.29 in1025.7 mb 0.00 in0.0 mm 0.00 in0.0 mm 0.00 in0.0 mm
08:35 PM 43.6°F6.4°C 30.2°F-1.0°C 59% 5.0 mph NE8.0 kmh NE 9.0 mph14.5 kmh 30.29 in1025.7 mb 0.00 in0.0 mm 0.00 in0.0 mm 0.00 in0.0 mm
08:40 PM 43.6°F6.4°C 30.2°F-1.0°C 59% 5.0 mph NE8.0 kmh NE 7.0 mph11.3 kmh 30.30 in1026.1 mb 0.00 in0.0 mm 0.00 in0.0 mm 0.00 in0.0 mm
08:45 PM 43.5°F6.4°C 30.6°F-0.8°C 60% 5.0 mph NE8.0 kmh NE 7.0 mph11.3 kmh 30.29 in1025.7 mb 0.00 in0.0 mm 0.00 in0.0 mm 0.00 in0.0 mm
08:50 PM 43.5°F6.4°C 30.1°F-1.1°C 59% 6.0 mph NE9.7 kmh NE 9.0 mph14.5 kmh 30.30 in1026.1 mb 0.00 in0.0 mm 0.00 in0.0 mm 0.00 in0.0 mm
08:55 PM 43.6°F6.4°C 29.8°F-1.2°C 58% 5.0 mph NE8.0 kmh NE 5.0 mph8.0 kmh 30.30 in1026.1 mb 0.00 in0.0 mm 0.00 in0.0 mm 0.00 in0.0 mm
09:00 PM 43.7°F6.5°C 30.3°F-0.9°C 59% 6.0 mph NE9.7 kmh NE 6.0 mph9.7 kmh 30.30 in1026.1 mb 0.00 in0.0 mm 0.00 in0.0 mm 0.00 in0.0 mm
09:05 PM 43.8°F6.6°C 29.6°F-1.3°C 57% 7.0 mph NE11.3 kmh NE 9.0 mph14.5 kmh 30.30 in1026.1 mb 0.00 in0.0 mm 0.00 in0.0 mm 0.00 in0.0 mm
09:10 PM 43.8°F6.6°C 30.0°F-1.1°C 58% 5.0 mph NE8.0 kmh NE 6.0 mph9.7 kmh 30.30 in1026.1 mb 0.00 in0.0 mm 0.00 in0.0 mm 0.00 in0.0 mm
09:15 PM 43.6°F6.4°C 30.7°F-0.7°C 60% 4.0 mph NE6.4 kmh NE 7.0 mph11.3 kmh 30.30 in1026.1 mb 0.00 in0.0 mm 0.00 in0.0 mm 0.00 in0.0 mm
09:20 PM 43.6°F6.4°C 30.2°F-1.0°C 59% 4.0 mph NE6.4 kmh NE 7.0 mph11.3 kmh 30.31 in1026.4 mb 0.00 in0.0 mm 0.00 in0.0 mm 0.00 in0.0 mm
09:25 PM 43.6°F6.4°C 30.2°F-1.0°C 59% 4.0 mph NE6.4 kmh NE 4.0 mph6.4 kmh 30.31 in1026.4 mb 0.00 in0.0 mm 0.00 in0.0 mm 0.00 in0.0 mm
09:30 PM 43.5°F6.4°C 31.0°F-0.6°C 61% 3.0 mph NE4.8 kmh NE 5.0 mph8.0 kmh 30.31 in1026.4 mb 0.00 in0.0 mm 0.00 in0.0 mm 0.00 in0.0 mm
09:35 PM 43.6°F6.4°C 31.1°F-0.5°C 61% 5.0 mph NE8.0 kmh NE 5.0 mph8.0 kmh 30.31 in1026.4 mb 0.00 in0.0 mm 0.00 in0.0 mm 0.00 in0.0 mm
09:40 PM 43.6°F6.4°C 31.1°F-0.5°C 61% 4.0 mph NE6.4 kmh NE 5.0 mph8.0 kmh 30.31 in1026.4 mb 0.00 in0.0 mm 0.00 in0.0 mm 0.00 in0.0 mm
09:45 PM 43.8°F6.6°C 31.6°F-0.2°C 62% Calm Calm 5.0 mph8.0 kmh 30.31 in1026.4 mb 0.00 in0.0 mm 0.00 in0.0 mm 0.00 in0.0 mm
09:50 PM 43.7°F6.5°C 31.6°F-0.2°C 62% 3.0 mph NE4.8 kmh NE 5.0 mph8.0 kmh 30.31 in1026.4 mb 0.00 in0.0 mm 0.00 in0.0 mm 0.00 in0.0 mm
09:55 PM 43.6°F6.4°C 31.1°F-0.5°C 61% 3.0 mph NE4.8 kmh NE 3.0 mph4.8 kmh 30.31 in1026.4 mb 0.00 in0.0 mm 0.00 in0.0 mm 0.00 in0.0 mm
10:00 PM 43.6°F6.4°C 31.9°F-0.1°C 63% 3.0 mph NE4.8 kmh NE 4.0 mph6.4 kmh 30.31 in1026.4 mb 0.00 in0.0 mm 0.00 in0.0 mm 0.00 in0.0 mm
10:05 PM 43.6°F6.4°C 32.2°F0.1°C 64% Calm Calm 4.0 mph6.4 kmh 30.32 in1026.8 mb 0.00 in0.0 mm 0.00 in0.0 mm 0.00 in0.0 mm
10:10 PM 43.5°F6.4°C 32.5°F0.3°C 65% Calm Calm -- 30.31 in1026.4 mb 0.00 in0.0 mm 0.00 in0.0 mm 0.00 in0.0 mm
10:15 PM 43.3°F6.3°C 32.3°F0.2°C 65% Calm Calm -- 30.31 in1026.4 mb 0.00 in0.0 mm 0.00 in0.0 mm 0.00 in0.0 mm
10:20 PM 43.1°F6.2°C 32.5°F0.3°C 66% Calm Calm 2.0 mph3.2 kmh 30.31 in1026.4 mb 0.00 in0.0 mm 0.00 in0.0 mm 0.00 in0.0 mm
10:25 PM 42.9°F6.1°C 33.4°F0.8°C 69% Calm Calm -- 30.31 in1026.4 mb 0.00 in0.0 mm 0.00 in0.0 mm 0.00 in0.0 mm
10:30 PM 42.7°F5.9°C 32.9°F0.5°C 68% 1.0 mph NE1.6 kmh NE 1.0 mph1.6 kmh 30.31 in1026.4 mb 0.00 in0.0 mm 0.00 in0.0 mm 0.00 in0.0 mm
10:35 PM 42.6°F5.9°C 33.5°F0.8°C 70% Calm Calm 2.0 mph3.2 kmh 30.31 in1026.4 mb 0.00 in0.0 mm 0.00 in0.0 mm 0.00 in0.0 mm
10:40 PM 42.5°F5.8°C 33.4°F0.8°C 70% Calm Calm -- 30.31 in1026.4 mb 0.00 in0.0 mm 0.00 in0.0 mm 0.00 in0.0 mm
10:45 PM 42.2°F5.7°C 33.8°F1.0°C 72% Calm Calm 2.0 mph3.2 kmh 30.31 in1026.4 mb 0.00 in0.0 mm 0.00 in0.0 mm 0.00 in0.0 mm
10:50 PM 42.2°F5.7°C 34.5°F1.4°C 74% Calm Calm 2.0 mph3.2 kmh 30.31 in1026.4 mb 0.00 in0.0 mm 0.00 in0.0 mm 0.00 in0.0 mm
10:55 PM 42.1°F5.6°C 34.4°F1.3°C 74% Calm Calm -- 30.31 in1026.4 mb 0.00 in0.0 mm 0.00 in0.0 mm 0.00 in0.0 mm
11:00 PM 42.0°F5.6°C 34.3°F1.3°C 74% Calm Calm -- 30.31 in1026.4 mb 0.00 in0.0 mm 0.00 in0.0 mm 0.00 in0.0 mm
11:05 PM 41.8°F5.4°C 33.8°F1.0°C 73% Calm Calm -- 30.31 in1026.4 mb 0.00 in0.0 mm 0.00 in0.0 mm 0.00 in0.0 mm
11:10 PM 41.7°F5.4°C 33.7°F0.9°C 73% Calm Calm -- 30.31 in1026.4 mb 0.00 in0.0 mm 0.00 in0.0 mm 0.00 in0.0 mm
11:15 PM 41.5°F5.3°C 34.2°F1.2°C 75% Calm Calm 1.0 mph1.6 kmh 30.31 in1026.4 mb 0.00 in0.0 mm 0.00 in0.0 mm 0.00 in0.0 mm
11:20 PM 41.4°F5.2°C 34.1°F1.2°C 75% Calm Calm 1.0 mph1.6 kmh 30.31 in1026.4 mb 0.00 in0.0 mm 0.00 in0.0 mm 0.00 in0.0 mm
11:25 PM 41.1°F5.1°C 34.5°F1.4°C 77% Calm Calm -- 30.31 in1026.4 mb 0.00 in0.0 mm 0.00 in0.0 mm 0.00 in0.0 mm
11:30 PM 41.0°F5.0°C 34.4°F1.3°C 77% Calm Calm 3.0 mph4.8 kmh 30.31 in1026.4 mb 0.00 in0.0 mm 0.00 in0.0 mm 0.00 in0.0 mm
11:35 PM 40.8°F4.9°C 34.5°F1.4°C 78% Calm Calm 3.0 mph4.8 kmh 30.31 in1026.4 mb 0.00 in0.0 mm 0.00 in0.0 mm 0.00 in0.0 mm
11:40 PM 40.7°F4.8°C 34.4°F1.3°C 78% 1.0 mph NE1.6 kmh NE 1.0 mph1.6 kmh 30.31 in1026.4 mb 0.00 in0.0 mm 0.00 in0.0 mm 0.00 in0.0 mm
11:45 PM 40.5°F4.7°C 33.9°F1.1°C 77% Calm Calm 2.0 mph3.2 kmh 30.31 in1026.4 mb 0.00 in0.0 mm 0.00 in0.0 mm 0.00 in0.0 mm
11:50 PM 40.4°F4.7°C 33.5°F0.8°C 76% Calm Calm 2.0 mph3.2 kmh 30.31 in1026.4 mb 0.00 in0.0 mm 0.00 in0.0 mm 0.00 in0.0 mm
11:55 PM 40.3°F4.6°C 33.4°F0.8°C 76% 2.0 mph NE3.2 kmh NE 3.0 mph4.8 kmh 30.31 in1026.4 mb 0.00 in0.0 mm 0.00 in0.0 mm 0.00 in0.0 mm